createdAt,value
2023-03-29T00:03:23.713Z,98483.43
2023-03-29T00:08:00.412Z,98482.41
2023-03-29T00:11:48.427Z,98487.19
2023-03-29T00:15:36.400Z,98488.65
2023-03-29T00:19:23.866Z,98487.27
2023-03-29T00:23:11.411Z,98482.45
2023-03-29T00:27:00.666Z,98479.40
2023-03-29T00:30:49.039Z,98484.64
2023-03-29T00:34:37.479Z,98483.71
2023-03-29T00:46:19.330Z,98467.67
2023-03-29T00:49:48.202Z,98463.10
2023-03-29T00:53:29.737Z,98465.05
2023-03-29T00:57:10.564Z,98457.88
2023-03-29T01:00:50.977Z,98455.56
2023-03-29T01:04:31.007Z,98452.83
2023-03-29T01:20:39.907Z,98439.21
2023-03-29T01:36:20.717Z,98431.56
2023-03-29T01:40:09.843Z,98427.02
2023-03-29T01:44:04.756Z,98424.05
2023-03-29T01:47:53.306Z,98425.54
2023-03-29T01:59:46.324Z,98415.73
2023-03-29T02:03:33.965Z,98417.77
2023-03-29T02:07:21.758Z,98418.59
2023-03-29T02:18:34.971Z,98419.30
2023-03-29T02:21:05.062Z,98416.77
2023-03-29T02:24:30.219Z,98413.68
2023-03-29T02:28:19.398Z,98413.13
2023-03-29T02:32:11.306Z,98410.50
2023-03-29T02:36:10.083Z,98407.70
2023-03-29T02:51:38.698Z,98426.27
2023-03-29T02:55:22.659Z,98423.66
2023-03-29T02:59:11.798Z,98427.21
2023-03-29T03:02:43.533Z,98429.41
2023-03-29T03:06:25.702Z,98434.05
2023-03-29T03:13:42.306Z,98430.02
2023-03-29T03:33:01.221Z,98426.62
2023-03-29T03:36:52.620Z,98418.55
2023-03-29T03:40:41.873Z,98417.70
2023-03-29T03:44:31.133Z,98416.21
2023-03-29T04:00:16.484Z,98415.71
2023-03-29T04:03:07.907Z,98417.05
2023-03-29T04:06:57.120Z,98419.89
2023-03-29T04:10:46.382Z,98418.64
2023-03-29T04:14:35.452Z,98420.09
2023-03-29T04:18:30.252Z,98420.27
2023-03-29T04:22:19.657Z,98416.87
2023-03-29T04:25:52.627Z,98416.78
2023-03-29T04:29:45.362Z,98415.20
2023-03-29T04:32:54.513Z,98413.16
2023-03-29T04:36:25.343Z,98410.85
2023-03-29T04:39:34.723Z,98416.08
2023-03-29T04:42:19.403Z,98414.73
2023-03-29T04:45:22.578Z,98416.17
2023-03-29T04:48:12.952Z,98406.67
2023-03-29T04:51:45.170Z,98407.59
2023-03-29T04:54:51.953Z,98405.60
2023-03-29T04:58:32.270Z,98405.38
2023-03-29T05:02:10.243Z,98409.45
2023-03-29T05:05:18.587Z,98407.68
2023-03-29T05:09:08.542Z,98402.41
2023-03-29T05:12:40.472Z,98397.96
2023-03-29T05:15:58.213Z,98397.40
2023-03-29T05:19:26.232Z,98397.73
2023-03-29T05:22:41.230Z,98391.13
2023-03-29T05:26:16.315Z,98391.83
2023-03-29T05:29:29.784Z,98395.23
2023-03-29T05:32:38.261Z,98392.13
2023-03-29T05:36:16.459Z,98390.89
2023-03-29T05:38:57.040Z,98393.22
2023-03-29T05:42:06.101Z,98391.63
2023-03-29T05:44:55.605Z,98392.30
2023-03-29T05:47:37.002Z,98397.38
2023-03-29T05:51:08.206Z,98398.50
2023-03-29T05:53:53.720Z,98393.48
2023-03-29T05:57:32.805Z,98389.54
2023-03-29T06:00:37.495Z,98386.84
2023-03-29T06:04:06.372Z,98386.68
2023-03-29T06:07:13.281Z,98385.77
2023-03-29T06:10:25.486Z,98389.62
2023-03-29T06:13:59.299Z,98390.59
2023-03-29T06:16:53.139Z,98394.54
2023-03-29T06:20:09.907Z,98398.98
2023-03-29T06:22:55.040Z,98400.16
2023-03-29T06:25:27.788Z,98398.53
2023-03-29T06:28:44.639Z,98397.53
2023-03-29T06:32:13.875Z,98399.59
2023-03-29T06:35:50.066Z,98405.81
2023-03-29T06:39:29.619Z,98409.48
2023-03-29T06:43:01.205Z,98413.18
2023-03-29T06:46:54.358Z,98415.73
2023-03-29T06:50:15.500Z,98416.10
2023-03-29T07:27:03.471Z,98425.77
2023-03-29T07:30:54.764Z,98420.75
2023-03-29T07:34:32.691Z,98423.84
2023-03-29T07:38:18.950Z,98425.29
2023-03-29T08:01:21.560Z,98425.52
2023-03-29T08:04:48.284Z,98428.27
2023-03-29T08:08:37.486Z,98418.35
2023-03-29T08:12:29.482Z,98415.66
2023-03-29T08:15:59.051Z,98416.36
2023-03-29T08:19:59.582Z,98419.87
2023-03-29T08:23:53.790Z,98420.45
2023-03-29T08:27:25.248Z,98420.50
2023-03-29T08:30:52.976Z,98416.09
2023-03-29T08:34:50.479Z,98410.50
2023-03-29T09:06:31.346Z,98388.05
2023-03-29T09:10:15.024Z,98385.16
2023-03-29T09:13:37.019Z,98388.67
2023-03-29T09:17:00.620Z,98385.11
2023-03-29T09:21:10.370Z,98381.33
2023-03-29T09:24:58.418Z,98367.89
2023-03-29T09:32:37.577Z,98361.56
2023-03-29T09:36:44.785Z,98365.00
2023-03-29T09:40:23.921Z,98357.02
2023-03-29T09:48:11.916Z,98352.38
2023-03-29T09:59:50.138Z,98351.14
2023-03-29T10:03:37.725Z,98351.63
2023-03-29T10:19:12.033Z,98342.55
2023-03-29T10:22:59.639Z,98336.48
2023-03-29T10:26:41.346Z,98328.77
2023-03-29T10:30:30.637Z,98325.92
2023-03-29T10:34:11.740Z,98324.59
2023-03-29T10:38:01.281Z,98321.58
2023-03-29T10:41:43.973Z,98322.84
2023-03-29T10:45:13.056Z,98320.04
2023-03-29T10:48:08.903Z,98320.55
2023-03-29T10:51:35.590Z,98312.84
2023-03-29T10:55:16.855Z,98304.94
2023-03-29T10:58:57.644Z,98302.98
2023-03-29T11:02:49.762Z,98296.56
2023-03-29T11:06:14.692Z,98288.07
2023-03-29T11:09:48.190Z,98281.08
2023-03-29T11:13:44.311Z,98269.30
2023-03-29T11:33:03.908Z,98241.86
2023-03-29T11:36:29.094Z,98240.13
2023-03-29T11:40:30.015Z,98233.50
2023-03-29T11:44:24.040Z,98223.64
2023-03-29T11:47:59.746Z,98222.58
2023-03-29T12:03:44.754Z,98199.45
2023-03-29T12:07:18.730Z,98194.14
2023-03-29T12:10:44.721Z,98197.39
2023-03-29T12:13:52.570Z,98198.30
2023-03-29T12:23:20.711Z,98198.67
2023-03-29T12:26:52.674Z,98198.79
2023-03-29T12:30:27.365Z,98191.83
2023-03-29T12:34:02.947Z,98188.52
2023-03-29T12:37:33.392Z,98180.23
2023-03-29T12:59:41.150Z,98154.26
2023-03-29T13:03:27.647Z,98153.85
2023-03-29T13:07:02.619Z,98146.84
2023-03-29T13:22:07.045Z,98132.73
2023-03-29T13:25:49.203Z,98124.14
2023-03-29T13:30:02.118Z,98125.55
2023-03-29T13:33:42.407Z,98119.63
2023-03-29T13:37:32.829Z,98118.45
2023-03-29T13:41:34.443Z,98114.58
2023-03-29T13:45:36.845Z,98103.87
2023-03-29T13:52:37.350Z,98098.97
2023-03-29T13:56:28.993Z,98093.91
2023-03-29T14:00:19.562Z,98094.73
2023-03-29T14:34:54.152Z,98074.81
2023-03-29T14:38:24.685Z,98077.14
2023-03-29T14:42:14.305Z,98077.48
2023-03-29T14:45:46.591Z,98070.12
2023-03-29T14:49:06.800Z,98060.14
2023-03-29T14:52:50.322Z,98057.70
2023-03-29T14:56:24.719Z,98058.84
2023-03-29T14:59:47.125Z,98047.98
2023-03-29T15:03:31.090Z,98046.34
2023-03-29T15:06:44.282Z,98040.95
2023-03-29T15:25:50.868Z,98033.60
2023-03-29T15:29:30.107Z,98031.58
2023-03-29T15:33:14.789Z,98030.55
2023-03-29T15:36:45.662Z,98030.52
2023-03-29T15:39:53.173Z,98023.96
2023-03-29T15:43:27.112Z,98017.19
2023-03-29T15:46:58.765Z,98013.79
2023-03-29T15:50:14.864Z,98004.66
2023-03-29T15:54:04.384Z,98000.69
2023-03-29T15:56:45.127Z,98004.27
2023-03-29T15:59:13.686Z,98007.52
2023-03-29T16:02:28.545Z,98010.63
2023-03-29T16:05:57.393Z,98019.60
2023-03-29T16:09:35.701Z,98023.93
2023-03-29T16:12:37.905Z,98022.79
2023-03-29T16:16:05.332Z,98021.96
2023-03-29T16:19:16.010Z,98020.31
2023-03-29T16:23:07.963Z,98024.62
2023-03-29T16:26:39.800Z,98014.02
2023-03-29T16:30:42.129Z,98004.16
2023-03-29T16:34:29.764Z,97997.53
2023-03-29T16:37:52.056Z,98003.71
2023-03-29T16:41:23.629Z,98008.25
2023-03-29T16:45:13.093Z,98003.80
2023-03-29T16:48:45.970Z,98000.89
2023-03-29T16:51:55.222Z,98009.70
2023-03-29T16:55:43.083Z,98015.63
2023-03-29T16:59:12.636Z,98020.95
2023-03-29T17:02:42.095Z,98023.79
2023-03-29T17:06:27.800Z,98024.92
2023-03-29T17:10:10.509Z,98022.92
2023-03-29T17:13:59.778Z,98027.33
2023-03-29T17:17:49.237Z,98028.98
2023-03-29T17:22:05.972Z,98027.57
2023-03-29T17:25:30.849Z,98032.94
2023-03-29T17:29:23.422Z,98045.61
2023-03-29T17:33:12.646Z,98048.54
2023-03-29T17:40:57.539Z,98042.61
2023-03-29T17:44:46.523Z,98041.08
2023-03-29T17:48:35.761Z,98050.45
2023-03-29T17:52:25.366Z,98049.27
2023-03-29T17:56:14.512Z,98055.96
2023-03-29T17:59:52.444Z,98059.40
2023-03-29T18:03:32.578Z,98063.36
2023-03-29T18:07:21.617Z,98063.86
2023-03-29T18:10:50.851Z,98059.29
2023-03-29T18:18:47.686Z,98072.79
2023-03-29T18:22:36.978Z,98071.89
2023-03-29T18:26:26.921Z,98060.91
2023-03-29T18:30:16.158Z,98061.86
2023-03-29T18:34:05.295Z,98070.73
2023-03-29T18:37:54.591Z,98076.42
2023-03-29T18:41:46.416Z,98076.58
2023-03-29T18:45:35.924Z,98076.39
2023-03-29T18:49:17.975Z,98071.23
2023-03-29T18:53:07.976Z,98068.16
2023-03-29T18:56:59.383Z,98064.67
2023-03-29T19:12:40.491Z,98053.45
2023-03-29T19:16:23.864Z,98058.13
2023-03-29T19:20:13.332Z,98051.21
2023-03-29T19:23:51.726Z,98056.23
2023-03-29T19:27:40.758Z,98054.30
2023-03-29T19:31:29.858Z,98054.77
2023-03-29T19:35:19.135Z,98049.17
2023-03-29T19:39:08.316Z,98042.63
2023-03-29T19:42:36.170Z,98040.23
2023-03-29T19:46:08.347Z,98038.12
2023-03-29T19:49:50.522Z,98042.78
2023-03-29T19:52:39.065Z,98043.11
2023-03-29T19:55:42.393Z,98035.92
2023-03-29T19:59:19.862Z,98030.98
2023-03-29T20:02:17.217Z,98037.02
2023-03-29T20:05:42.207Z,98033.71
2023-03-29T20:09:14.456Z,98031.38
2023-03-29T20:12:57.709Z,98035.95
2023-03-29T20:16:46.916Z,98030.19
2023-03-29T20:20:36.483Z,98028.58
2023-03-29T20:24:25.900Z,98028.38
2023-03-29T20:28:15.122Z,98020.59
2023-03-29T20:32:04.285Z,98020.44
2023-03-29T20:35:53.719Z,98009.37
2023-03-29T20:39:37.545Z,98006.02
2023-03-29T20:43:26.815Z,97996.39
2023-03-29T20:47:24.910Z,97986.95
2023-03-29T20:51:14.139Z,97984.05
2023-03-29T20:55:03.185Z,97987.70
2023-03-29T20:58:52.791Z,97987.98
2023-03-29T21:02:41.867Z,97983.98
2023-03-29T21:06:31.089Z,97984.92
2023-03-29T21:10:20.315Z,97983.77
2023-03-29T21:18:05.266Z,97982.48
2023-03-29T21:21:47.211Z,97984.91
2023-03-29T21:25:36.178Z,97981.55
2023-03-29T21:29:24.650Z,97976.35
2023-03-29T21:32:38.678Z,97971.75
2023-03-29T21:36:27.656Z,97973.56
2023-03-29T21:40:44.102Z,97972.13
2023-03-29T21:44:34.245Z,97975.88
2023-03-29T21:48:03.232Z,97969.08
2023-03-29T21:51:45.501Z,97966.61
2023-03-29T21:55:34.566Z,97962.48
2023-03-29T21:59:23.550Z,97961.64
2023-03-29T22:03:12.577Z,97956.39
2023-03-29T22:07:00.143Z,97952.59
2023-03-29T22:22:19.847Z,97934.71
2023-03-29T22:26:08.982Z,97929.16
2023-03-29T22:29:58.153Z,97929.03
2023-03-29T22:33:47.055Z,97926.14
2023-03-29T22:36:37.159Z,97924.38
2023-03-29T22:39:45.773Z,97921.08
2023-03-29T23:10:31.984Z,97908.52
2023-03-29T23:14:21.334Z,97911.48
2023-03-29T23:18:10.471Z,97903.18
2023-03-29T23:21:59.762Z,97910.56
2023-03-29T23:25:48.989Z,97909.26
2023-03-29T23:29:38.125Z,97906.23
2023-03-29T23:33:27.950Z,97904.90
2023-03-29T23:37:16.927Z,97910.57
2023-03-29T23:41:09.126Z,97906.20
2023-03-29T23:44:58.442Z,97905.52
2023-03-29T23:48:47.399Z,97901.14
2023-03-29T23:52:36.885Z,97897.35
2023-03-29T23:56:25.932Z,97887.45
